This is the latest recevied weather packets stored in our database for station/object IU2RPR-3. If no packets are shown the sender has not sent any weather packets the latest 10 day(s).
| Time | Temp. | Humidity | Pressure | Rain* | Wind** | Luminosity | Snow |
|---|---|---|---|---|---|---|---|
| 1788337424 | 25.56° C | 53% | 1018.8 hPa | - | - | - | - |
| 1788336222 | 25° C | 52% | 1018.7 hPa | - | - | - | - |
| 1788335021 | 25° C | 55% | 1018.6 hPa | - | - | - | - |
| 1788333820 | 23.89° C | 59% | 1018.6 hPa | - | - | - | - |
| 1788332618 | 23.33° C | 63% | 1018.5 hPa | - | - | - | - |
| 1788331417 | 22.78° C | 66% | 1018.6 hPa | - | - | - | - |
| 1788330216 | 21.67° C | 67% | 1018.6 hPa | - | - | - | - |
| 1788329015 | 21.67° C | 69% | 1018.7 hPa | - | - | - | - |
| 1788327813 | 21.11° C | 71% | 1018.5 hPa | - | - | - | - |
| 1788324210 | 21.11° C | 72% | 1018.1 hPa | - | - | - | - |
| 1788301386 | 23.33° C | 65% | 1017.6 hPa | - | - | - | - |
| 1788300185 | 23.33° C | 65% | 1017.6 hPa | - | - | - | - |
| 1788297782 | 23.89° C | 63% | 1017.5 hPa | - | - | - | - |
| 1788296581 | 23.89° C | 63% | 1017.5 hPa | - | - | - | - |
| 1788295380 | 24.44° C | 61% | 1017.5 hPa | - | - | - | - |
| 1788294179 | 25° C | 59% | 1017.3 hPa | - | - | - | - |
| 1788292977 | 25° C | 59% | 1017.2 hPa | - | - | - | - |
| 1788291776 | 26.11° C | 56% | 1016.9 hPa | - | - | - | - |
| 1788290575 | 26.11° C | 55% | 1016.7 hPa | - | - | - | - |
| 1788289374 | 26.11° C | 54% | 1016.4 hPa | - | - | - | - |
| 1788288037 | 27.22° C | 51% | 1016.1 hPa | - | - | - | - |
| 1788286836 | 27.78° C | 49% | 1015.9 hPa | - | - | - | - |
| 1788285635 | 28.89° C | 48% | 1015.7 hPa | - | - | - | - |
| 1788283232 | 30.56° C | 43% | 1015.4 hPa | - | - | - | - |
| 1788282031 | 32.78° C | 39% | 1015.3 hPa | - | - | - | - |
* Rain since midnight (hover to see other rain measurements)
** Current wind speed in m/s (hover to see current wind gust speed)